This is the latest recevied weather packets stored in our database for station/object N0HEQ. If no packets are shown the sender has not sent any weather packets the latest 10 day(s).
| Time | Temp. | Humidity | Pressure | Rain* | Wind** | Luminosity | Snow |
|---|---|---|---|---|---|---|---|
| 1777767411 | 22.78° C | 12% | 1019 hPa | 0 mm | - | 125 W/m² | - |
| 1777767109 | 22.78° C | 11% | 1019.4 hPa | 0 mm | - | 143 W/m² | - |
| 1777766806 | 22.78° C | 12% | 1019.4 hPa | 0 mm | - | 155 W/m² | - |
| 1777766503 | 22.78° C | 12% | 1019.3 hPa | 0 mm | - | 169 W/m² | - |
| 1777766200 | 22.22° C | 11% | 1019.4 hPa | 0 mm | - | 185 W/m² | - |
| 1777765898 | 22.78° C | 10% | 1019.5 hPa | 0 mm | - | 198 W/m² | - |
| 1777765593 | 23.89° C | 13% | 1019.5 hPa | 0 mm | - | 212 W/m² | - |
| 1777765291 | 23.89° C | 10% | 1019.4 hPa | 0 mm | - | 228 W/m² | - |
| 1777764987 | 24.44° C | 10% | 1019.4 hPa | 0 mm | - | 243 W/m² | - |
| 1777764684 | 23.33° C | 12% | 1019.5 hPa | 0 mm | - | 258 W/m² | - |
| 1777764379 | 22.78° C | 11% | 1019.4 hPa | 0 mm | - | 275 W/m² | - |
| 1777764078 | 22.78° C | 12% | 1019.8 hPa | 0 mm | - | 295 W/m² | - |
| 1777763774 | 22.22° C | 11% | 1019.8 hPa | 0 mm | - | 312 W/m² | - |
| 1777763472 | 22.78° C | 12% | 1019.4 hPa | 0 mm | - | 297 W/m² | - |
| 1777763170 | 22.78° C | 10% | 1019.6 hPa | 0 mm | - | 352 W/m² | - |
| 1777762868 | 22.78° C | 12% | 1019.6 hPa | 0 mm | - | 373 W/m² | - |
| 1777762563 | 22.22° C | 11% | 1019.6 hPa | 0 mm | - | 389 W/m² | - |
| 1777762261 | 22.78° C | 11% | 1019.9 hPa | 0 mm | - | 407 W/m² | - |
| 1777761957 | 22.78° C | 10% | 1019.8 hPa | 0 mm | - | 422 W/m² | - |
| 1777761654 | 23.33° C | 10% | 1019.9 hPa | 0 mm | - | 433 W/m² | - |
| 1777761352 | 22.78° C | 11% | 1019.9 hPa | 0 mm | - | 453 W/m² | - |
| 1777761050 | 25.56° C | 11% | 1020.1 hPa | 0 mm | - | 475 W/m² | - |
| 1777760747 | 24.44° C | 11% | 1020 hPa | 0 mm | - | 497 W/m² | - |
| 1777760443 | 22.78° C | 10% | 1020.1 hPa | 0 mm | - | 515 W/m² | - |
| 1777760139 | 23.89° C | 9% | 1020.3 hPa | 0 mm | - | 530 W/m² | - |
* Rain latest hour (hover to see other rain measurements)
** Current wind speed in m/s (hover to see current wind gust speed)